Concepcion Airport


Codes: SLCP/CEP
Name: Concepcion Airport
City: Concepcion
Country: Bolivia
Elevation: 1620 ft.

Photos at Concepcion Airport


   Photos courtesy of SpottingLog. You can add your own sightings and photos by signing up for a free trial today.



No photos found.

Weather at Concepcion Airport


Time (UTC)DescriptionTempratureWindCloud coverageVisibilityPressureHumidity
15-Apr-2024 18:00Light Rain24°C9 mph, N100%7154m1010hPa93%
15-Apr-2024 21:00Light Rain24°C7 mph, N100%10000m1008hPa95%
16-Apr-2024 00:00Overcast Clouds23°C4 mph, N100%10000m1009hPa99%
16-Apr-2024 03:00Overcast Clouds23°C4 mph, N100%10000m1011hPa99%
16-Apr-2024 06:00Overcast Clouds22°C4 mph, NW100%10000m1010hPa99%
16-Apr-2024 09:00Overcast Clouds22°C2 mph, N97%10000m1011hPa99%
16-Apr-2024 12:00Overcast Clouds23°C4 mph, N99%10000m1013hPa97%
16-Apr-2024 15:00Light Rain30°C9 mph, N60%10000m1012hPa63%
16-Apr-2024 18:00Moderate Rain28°C7 mph, NW79%10000m1010hPa77%
16-Apr-2024 21:00Moderate Rain24°C4 mph, W95%10000m1010hPa93%
17-Apr-2024 00:00Light Rain22°C7 mph, S98%10000m1012hPa98%
17-Apr-2024 03:00Overcast Clouds19°C4 mph, S100%10000m1015hPa98%
17-Apr-2024 06:00Overcast Clouds18°C4 mph, S100%10000m1014hPa98%
17-Apr-2024 09:00Light Rain17°C7 mph, S100%10000m1014hPa97%
17-Apr-2024 12:00Light Rain18°C7 mph, S100%10000m1016hPa96%
17-Apr-2024 15:00Light Rain24°C7 mph, SE100%10000m1017hPa75%
17-Apr-2024 18:00Overcast Clouds24°C7 mph, S100%10000m1014hPa72%
17-Apr-2024 21:00Overcast Clouds23°C7 mph, S100%10000m1013hPa79%
18-Apr-2024 00:00Overcast Clouds20°C4 mph, SE100%10000m1015hPa91%
18-Apr-2024 03:00Overcast Clouds21°C4 mph, S100%10000m1016hPa86%
18-Apr-2024 06:00Overcast Clouds19°C4 mph, S96%10000m1015hPa93%
18-Apr-2024 09:00Overcast Clouds19°C7 mph, S98%10000m1015hPa91%
18-Apr-2024 12:00Overcast Clouds21°C9 mph, SE93%10000m1017hPa81%
18-Apr-2024 15:00Broken Clouds27°C9 mph, SE72%10000m1016hPa64%
18-Apr-2024 18:00Light Rain25°C4 mph, SE86%10000m1014hPa86%
18-Apr-2024 21:00Light Rain24°C4 mph, S91%10000m1012hPa90%
19-Apr-2024 00:00Overcast Clouds21°C7 mph, S96%10000m1014hPa94%
19-Apr-2024 03:00Broken Clouds19°C4 mph, S62%10000m1014hPa98%
19-Apr-2024 06:00Broken Clouds19°C4 mph, S51%10000m1014hPa99%
19-Apr-2024 09:00Broken Clouds19°C4 mph, SE80%10000m1014hPa99%
19-Apr-2024 12:00Broken Clouds21°C4 mph, SE79%10000m1015hPa92%
19-Apr-2024 15:00Broken Clouds28°C4 mph, E74%10000m1014hPa62%
19-Apr-2024 18:00Broken Clouds29°C4 mph, NE80%10000m1011hPa57%
19-Apr-2024 21:00Overcast Clouds26°C4 mph, E100%10000m1009hPa76%
20-Apr-2024 00:00Overcast Clouds23°C2 mph, SE90%10000m1011hPa86%
20-Apr-2024 03:00Overcast Clouds21°C2 mph, SE87%10000m1012hPa90%
20-Apr-2024 06:00Overcast Clouds20°C2 mph, E97%10000m1012hPa95%
20-Apr-2024 09:00Broken Clouds20°C0 mph, SE57%10000m1012hPa96%
20-Apr-2024 12:00Scattered Clouds24°C2 mph, NE31%10000m1013hPa81%
20-Apr-2024 15:00Clear Sky31°C4 mph, NE1%10000m1012hPa54%